Terminal Aerodrome Forecast
Issued by NWS Houston/Galveston, TX

Home | Current Version | Previous Version | Text Only | Print | Product List | Glossary On
Versions: 1 2 3 4 5 6 7 8 9 10 11 12 13 14 15 16 17 18 19 20 21 22 23 24 25 26 27 28 29 30 31 32 33 34 35 36 37 38 39 40 41 42 43 44 45 46 47 48 49 50
000
FTUS44 KHGX 250324 AAV
TAFGLS
TAF AMD
KGLS 250324Z 2503/2524 04015KT P6SM VCSH SCT008 BKN035 OVC060
     FM250600 09009KT P6SM SCT030 BKN060 BKN250
     FM250800 13016KT P6SM SHRA VCTS SCT015 BKN025CB OVC250
      TEMPO 2508/2510 VRB25KT 2SM TSRA BKN015CB
     FM251000 28012KT P6SM -RA VCTS BKN015CB
     FM251400 VRB06KT P6SM BKN025
     FM251600 14013KT P6SM SCT025 BKN035
     FM251800 14013KT P6SM SCT025 BKN250=

USA.gov is the U.S. government's official web portal to all federal, state and local government web resources and services.